Terminal Aerodrome Forecast
Issued by NWS

Home | Current Version | Previous Version | Text Only | Print | Product List | Glossary On
Versions: 1 2 3 4 5 6 7 8 9 10 11 12 13 14 15 16 17 18 19 20 21 22 23 24 25 26 27 28 29 30 31 32 33 34 35 36 37 38 39 40 41 42 43 44 45 46 47 48 49 50
659
FTUS41 KCTP 010208 AAA
TAFAOO
TAF AMD
KAOO 010208Z 0102/0124 07008G15KT 5SM BR BKN005 OVC008
     FM010800 08007KT 3SM -DZ BR OVC004
     FM011700 09008KT 5SM BR BKN009 OVC015=

USA.gov is the U.S. government's official web portal to all federal, state and local government web resources and services.